Yutaka Maru No.2 — JD4265 — position and weather

sailwx.info

Track history (hours):
 
Tides and Currents Weather Stations Pressure Air Temp Water Temp Dewpoint Dewpoint Depression Visibility Wind Speed Wind Dir Waves Ship Positions

Yutaka Maru No.2

Last reported at 2018-Jan-22 11:48 UTC. Time now 2018-Jan-23 06:08 UTC.
Position N 34°37' E 135°25'.

Length 76 m; draft 4.2 m.

Type: Cargo ship. MMSI: 431010033.

Date/timePositionNaut miles runAvg speedWind from/ knotsBaromVisibWave heightAir tempDewpointWater temp
2018-Jan-22 11:48N 34°37' E 135°25'0 0.4
2018-Jan-22 11:31N 34°37' E 135°25'3 6.5
2018-Jan-22 11:00N 34°37' E 135°21'612.3
2018-Jan-22 10:30N 34°36' E 135°14'612.6
2018-Jan-22 10:01N 34°35' E 135°06'714.2
2018-Jan-22 09:30N 34°37' E 134°58'713.9
2018-Jan-22 09:01N 34°39' E 134°50'713.7
2018-Jan-22 08:30N 34°43' E 134°43'7 1.2
2018-Jan-22 02:39N 34°47' E 134°36'0 0.5
2018-Jan-22 02:27N 34°47' E 134°36'1 0.1
2018-Jan-21 09:38N 34°45' E 134°37'1 7.0
2018-Jan-21 09:30N 34°45' E 134°38'611.8
2018-Jan-21 09:00N 34°42' E 134°44'611.4
2018-Jan-21 08:30N 34°39' E 134°50'510.5
2018-Jan-21 08:01N 34°37' E 134°56'510.2
2018-Jan-21 07:31N 34°37' E 135°02'510.6
2018-Jan-21 07:00N 34°36' E 135°09'612.0
2018-Jan-21 06:31N 34°36' E 135°16'612.1
2018-Jan-21 06:00N 34°36' E 135°23'3 6.6
2018-Jan-21 05:30N 34°35' E 135°27'0 0.0
2018-Jan-20 23:00N 34°35' E 135°27'0 0.0
2018-Jan-20 00:14N 34°35' E 135°28'0 0.4
2018-Jan-20 00:00N 34°35' E 135°28'3 5.7
2018-Jan-19 23:30N 34°36' E 135°24'510.3
2018-Jan-19 23:00N 34°34' E 135°19'611.8
2018-Jan-19 22:30N 34°29' E 135°14'611.5
2018-Jan-19 22:01N 34°25' E 135°10'612.3
2018-Jan-19 21:31N 34°20' E 135°05'510.1
2018-Jan-19 21:00N 34°15' E 135°05'2 3.6
2018-Jan-19 20:30N 34°15' E 135°07'0 0.0
2018-Jan-19 20:00N 34°15' E 135°07'0 0.0
2018-Jan-19 19:30N 34°15' E 135°07'0 0.0
2018-Jan-19 19:00N 34°15' E 135°07'0 0.0
2018-Jan-19 18:30N 34°15' E 135°07'0 0.0
2018-Jan-19 18:00N 34°15' E 135°07'0 0.0
2018-Jan-19 17:30N 34°15' E 135°07'0 0.0
2018-Jan-19 17:01N 34°15' E 135°07'0 0.2
2018-Jan-19 16:30N 34°15' E 135°07'0 0.0
2018-Jan-19 16:00N 34°15' E 135°07'0 0.0
2018-Jan-19 15:30N 34°15' E 135°07'0 0.0
2018-Jan-19 15:00N 34°15' E 135°07'0 0.0
2018-Jan-19 14:30N 34°15' E 135°07'0 0.2
2018-Jan-19 14:00N 34°15' E 135°07'4 7.3
2018-Jan-19 13:30N 34°16' E 135°03'612.3
2018-Jan-19 13:00N 34°22' E 135°03'612.3
2018-Jan-19 12:30N 34°28' E 135°03'611.4
2018-Jan-19 12:00N 34°34' E 135°03'4 8.9
2018-Jan-19 11:30N 34°37' E 134°59'510.7
2018-Jan-19 11:00N 34°37' E 134°53'612.2
2018-Jan-19 10:30N 34°41' E 134°46'612.7
2018-Jan-19 10:00N 34°44' E 134°40'2 0.1
2018-Jan-18 12:18N 34°45' E 134°38'2 7.0
2018-Jan-18 12:00N 34°44' E 134°36'611.6
2018-Jan-18 11:27N 34°42' E 134°29'611.7
2018-Jan-18 10:57N 34°39' E 134°22'8911.3
2018-Jan-18 03:01N 33°60' E 132°45'014.4
2018-Jan-18 03:00N 33°60' E 132°45'713.1
2018-Jan-18 02:30N 33°55' E 132°39'812.6
2018-Jan-18 01:50N 33°49' E 132°32'512.6
2018-Jan-18 01:27N 33°47' E 132°27'612.9
2018-Jan-18 00:59N 33°43' E 132°21'  
Track history (hours):
 
Tides and Currents Weather Stations Pressure Air Temp Water Temp Dewpoint Dewpoint Depression Visibility Wind Speed Wind Dir Waves Ship Positions

Yutaka Maru No.2

Last reported at 2018-Jan-22 11:48 UTC. Time now 2018-Jan-23 06:08 UTC.
Position N 34°37' E 135°25'.

Length 76 m; draft 4.2 m.

Type: Cargo ship. MMSI: 431010033.

Date/timePositionNaut miles runAvg speedWind from/ knotsBaromVisibWave heightAir tempDewpointWater temp
2018-Jan-22 11:48N 34°37' E 135°25'0 0.4
2018-Jan-22 11:31N 34°37' E 135°25'3 6.5
2018-Jan-22 11:00N 34°37' E 135°21'612.3
2018-Jan-22 10:30N 34°36' E 135°14'612.6
2018-Jan-22 10:01N 34°35' E 135°06'714.2
2018-Jan-22 09:30N 34°37' E 134°58'713.9
2018-Jan-22 09:01N 34°39' E 134°50'713.7
2018-Jan-22 08:30N 34°43' E 134°43'7 1.2
2018-Jan-22 02:39N 34°47' E 134°36'0 0.5
2018-Jan-22 02:27N 34°47' E 134°36'1 0.1
2018-Jan-21 09:38N 34°45' E 134°37'1 7.0
2018-Jan-21 09:30N 34°45' E 134°38'611.8
2018-Jan-21 09:00N 34°42' E 134°44'611.4
2018-Jan-21 08:30N 34°39' E 134°50'510.5
2018-Jan-21 08:01N 34°37' E 134°56'510.2
2018-Jan-21 07:31N 34°37' E 135°02'510.6
2018-Jan-21 07:00N 34°36' E 135°09'612.0
2018-Jan-21 06:31N 34°36' E 135°16'612.1
2018-Jan-21 06:00N 34°36' E 135°23'3 6.6
2018-Jan-21 05:30N 34°35' E 135°27'0 0.0
2018-Jan-20 23:00N 34°35' E 135°27'0 0.0
2018-Jan-20 00:14N 34°35' E 135°28'0 0.4
2018-Jan-20 00:00N 34°35' E 135°28'3 5.7
2018-Jan-19 23:30N 34°36' E 135°24'510.3
2018-Jan-19 23:00N 34°34' E 135°19'611.8
2018-Jan-19 22:30N 34°29' E 135°14'611.5
2018-Jan-19 22:01N 34°25' E 135°10'612.3
2018-Jan-19 21:31N 34°20' E 135°05'510.1
2018-Jan-19 21:00N 34°15' E 135°05'2 3.6
2018-Jan-19 20:30N 34°15' E 135°07'0 0.0
2018-Jan-19 20:00N 34°15' E 135°07'0 0.0
2018-Jan-19 19:30N 34°15' E 135°07'0 0.0
2018-Jan-19 19:00N 34°15' E 135°07'0 0.0
2018-Jan-19 18:30N 34°15' E 135°07'0 0.0
2018-Jan-19 18:00N 34°15' E 135°07'0 0.0
2018-Jan-19 17:30N 34°15' E 135°07'0 0.0
2018-Jan-19 17:01N 34°15' E 135°07'0 0.2
2018-Jan-19 16:30N 34°15' E 135°07'0 0.0
2018-Jan-19 16:00N 34°15' E 135°07'0 0.0
2018-Jan-19 15:30N 34°15' E 135°07'0 0.0
2018-Jan-19 15:00N 34°15' E 135°07'0 0.0
2018-Jan-19 14:30N 34°15' E 135°07'0 0.2
2018-Jan-19 14:00N 34°15' E 135°07'4 7.3
2018-Jan-19 13:30N 34°16' E 135°03'612.3
2018-Jan-19 13:00N 34°22' E 135°03'612.3
2018-Jan-19 12:30N 34°28' E 135°03'611.4
2018-Jan-19 12:00N 34°34' E 135°03'4 8.9
2018-Jan-19 11:30N 34°37' E 134°59'510.7
2018-Jan-19 11:00N 34°37' E 134°53'612.2
2018-Jan-19 10:30N 34°41' E 134°46'612.7
2018-Jan-19 10:00N 34°44' E 134°40'2 0.1
2018-Jan-18 12:18N 34°45' E 134°38'2 7.0
2018-Jan-18 12:00N 34°44' E 134°36'611.6
2018-Jan-18 11:27N 34°42' E 134°29'611.7
2018-Jan-18 10:57N 34°39' E 134°22'8911.3
2018-Jan-18 03:01N 33°60' E 132°45'014.4
2018-Jan-18 03:00N 33°60' E 132°45'713.1
2018-Jan-18 02:30N 33°55' E 132°39'812.6
2018-Jan-18 01:50N 33°49' E 132°32'512.6
2018-Jan-18 01:27N 33°47' E 132°27'612.9
2018-Jan-18 00:59N 33°43' E 132°21'  

Dump ship's entire track history